• Join FlightAware (Why Join?)
  • Login
  • US Flag GB Flag 
18:23 EDT


 

Airport Tracker/Info


-or-


 

Live Flight TrackerFlight Track Log ✈ N541JD ✈ 24-Dec-2013 ✈ KPIE - KEKY

Flight Track Log - Related Links

Times and Time Zones

All times are in EST time to prevent confusion due to time zone crossing. See the N541JD flight status page for this flight to view local times or setup timezone preferences in your user account.

Time Position Orientation Groundspeed Altitude Reporting Facility
EST Latitude Longitude Course Direction KTS MPH feet Rate Location/Type
19:10 27.9333 -82.7000 319° Northwest 121 139 600  Level Tampa TRACON
19:11 27.9667 -82.7167 336° Northwest 136 157 1,400 900 Climbing Tampa TRACON
19:12 28.0000 -82.7333 336° Northwest 132 152 2,400 900 Climbing Tampa TRACON
19:13 28.0333 -82.7500 336° Northwest 146 168 3,200 900 Climbing Tampa TRACON
19:14 28.0667 -82.7500 360° North 136 157 4,200 900 Climbing Tampa TRACON
19:15 28.1000 -82.7667 336° Northwest 128 147 5,100 900 Climbing Tampa TRACON
19:17 28.1728 -82.7747 354° North 152 175 7,000 840 Climbing Jacksonville Center
19:18 28.2061 -82.7819 349° North 133 153 7,800 540 Climbing Jacksonville Center
19:19 28.2417 -82.7911 347° North 127 146 8,100 180 Climbing Jacksonville Center
19:20 28.2856 -82.7958 355° North 133 153 8,200  Climbing Jacksonville Center
19:21 28.3294 -82.8078 347° North 144 166 8,200  Level Jacksonville Center
19:22 28.3711 -82.8147 352° North 149 171 8,200  Level Jacksonville Center
19:23 28.4150 -82.8217 352° North 149 171 8,200  Level Jacksonville Center
19:24 28.4589 -82.8289 352° North 149 171 8,200  Level Jacksonville Center
19:25 28.5006 -82.8406 346° North 154 177 8,200  Level Jacksonville Center
19:26 28.5422 -82.8478 351° North 154 177 8,200  Level Jacksonville Center
19:27 28.5861 -82.8572 349° North 154 177 8,200  Level Jacksonville Center
19:28 28.6300 -82.8642 352° North 154 177 8,200  Level Jacksonville Center
19:29 28.6717 -82.8714 351° North 154 177 8,200  Level Jacksonville Center
19:30 28.7197 -82.8808 350° North 154 177 8,200  Level Jacksonville Center
19:31 28.7633 -82.8878 352° North 154 177 8,200  Level Jacksonville Center
19:32 28.8072 -82.8950 352° North 154 177 8,200  Level Jacksonville Center
19:33 28.8511 -82.9044 349° North 159 183 8,200  Level Jacksonville Center
19:34 28.8908 -82.9139 348° North 159 183 8,200  Level Jacksonville Center
19:35 28.9347 -82.9211 352° North 159 183 8,200  Level Jacksonville Center
19:36 28.9764 -82.9306 349° North 159 183 8,200 -60 Level Jacksonville Center
19:37 29.0181 -82.9378 351° North 159 183 8,100  Descending Jacksonville Center
19:38 29.0578 -82.9447 351° North 154 177 8,200  Climbing Jacksonville Center
19:39 29.0911 -82.9497 353° North 149 171 8,200  Level Jacksonville Center
19:40 29.1414 -82.9592 351° North 149 171 8,200  Level Jacksonville Center
19:41 29.1831 -82.9686 349° North 143 165 8,200  Level Jacksonville Center
19:42 29.2269 -82.9783 349° North 143 165 8,200  Level Jacksonville Center
19:43 29.2664 -82.9856 351° North 143 165 8,200  Level Jacksonville Center
19:44 29.3083 -82.9925 352° North 143 165 8,200  Level Jacksonville Center
19:45 29.3458 -83.0211 326° Northwest 143 165 8,200  Level Jacksonville Center
19:46 29.3769 -83.0522 319° Northwest 148 170 8,200  Level Jacksonville Center
19:47 29.4103 -83.0833 321° Northwest 153 176 8,200  Level Jacksonville Center
19:48 29.4439 -83.1167 319° Northwest 153 176 8,200 -60 Level Jacksonville Center
19:49 29.4792 -83.1478 322° Northwest 159 183 8,100 -60 Descending Jacksonville Center
19:50 29.5106 -83.1789 319° Northwest 159 183 8,100  Level Jacksonville Center
19:51 29.5458 -83.2100 323° Northwest 159 183 8,200  Climbing Jacksonville Center
19:52 29.5792 -83.2411 321° Northwest 159 183 8,100 -60 Descending Jacksonville Center
19:53 29.6125 -83.2725 321° Northwest 159 183 8,100  Level Jacksonville Center
19:54 29.6458 -83.3036 321° Northwest 159 183 8,200  Climbing Jacksonville Center
19:55 29.6792 -83.3347 321° Northwest 159 183 8,100  Descending Jacksonville Center
19:56 29.7125 -83.3661 321° Northwest 159 183 8,200  Climbing Jacksonville Center
19:57 29.7456 -83.3950 323° Northwest 159 183 8,200  Level Jacksonville Center
19:58 29.7789 -83.4286 319° Northwest 159 183 8,200  Level Jacksonville Center
19:59 29.8100 -83.4600 319° Northwest 159 183 8,200  Level Jacksonville Center
20:00 29.8414 -83.4889 321° Northwest 159 183 8,200  Level Jacksonville Center
20:01 29.8744 -83.5178 323° Northwest 159 183 8,200  Level Jacksonville Center
20:02 29.9078 -83.5492 321° Northwest 159 183 8,200 -60 Level Jacksonville Center
20:03 29.9389 -83.5781 321° Northwest 159 183 8,100 -60 Descending Jacksonville Center
20:04 29.9700 -83.6119 317° Northwest 159 183 8,100  Level Jacksonville Center
20:05 30.0033 -83.6386 325° Northwest 159 183 8,100  Level Jacksonville Center
20:06 30.0344 -83.6700 319° Northwest 159 183 8,100  Level Jacksonville Center
20:07 30.0656 -83.6989 321° Northwest 154 177 8,100  Level Jacksonville Center
20:08 30.0967 -83.7281 321° Northwest 154 177 8,100  Level Jacksonville Center
20:09 30.1278 -83.7572 321° Northwest 154 177 8,100  Level Jacksonville Center
20:10 30.1611 -83.7886 321° Northwest 154 177 8,100  Level Jacksonville Center
20:36 30.9903 -84.5889 319° Northwest 147 169 8,100  Level Jacksonville Center
20:36 30.9922 -84.5914 312° West 148 170 8,100  Level Jacksonville Center
20:37 31.0019 -84.6032 320° Northwest  Level FlightAware Approximate
20:37 31.0253 -84.6236 320° Northwest 146 168 8,100  Level Jacksonville Center
20:38 31.0338 -84.6344 320° Northwest  Level FlightAware Approximate
20:38 31.0561 -84.6508 323° Northwest 146 168 8,100  Level Jacksonville Center
20:39 31.0657 -84.6657 320° Northwest  Level FlightAware Approximate
20:39 31.0869 -84.6853 316° Northwest 146 168 8,100  Level Jacksonville Center
20:40 31.0973 -84.6973 319° Northwest  Level FlightAware Approximate
20:41 31.1290 -84.7289 319° Northwest  Level FlightAware Approximate
20:41 31.1200 -84.7150 322° Northwest 145 167 8,100  Level Jacksonville Center
20:42 31.1606 -84.7606 319° Northwest  Level FlightAware Approximate
20:42 31.1508 -84.7447 320° Northwest 145 167 8,100  Level Jacksonville Center
20:43 31.1817 -84.7769 318° Northwest 146 168 8,100  Level Jacksonville Center
20:44 31.2125 -84.8042 323° Northwest 146 168 8,100  Level Jacksonville Center
20:45 31.2456 -84.8389 318° Northwest 145 167 8,100  Level Jacksonville Center
20:46 31.2742 -84.8686 318° Northwest 146 168 8,100  Level Jacksonville Center
20:47 31.3072 -84.8986 322° Northwest 147 169 8,100  Level Jacksonville Center
20:48 31.3381 -84.9283 321° Northwest 148 170 8,100  Level Jacksonville Center
20:49 31.3689 -84.9608 318° Northwest 145 167 8,100  Level Jacksonville Center
20:50 31.4039 -84.9931 322° Northwest 146 168 8,100  Level Jacksonville Center
20:51 31.4325 -85.0231 318° Northwest 147 169 8,100  Level Jacksonville Center
20:52 31.4633 -85.0556 318° Northwest 146 168 8,100  Level Jacksonville Center
20:53 31.4961 -85.0856 322° Northwest 146 168 8,100  Level Jacksonville Center
20:54 31.5269 -85.1153 321° Northwest 146 168 8,100  Level Jacksonville Center
20:55 31.5578 -85.1453 320° Northwest 147 169 8,100  Level Jacksonville Center
20:56 31.5906 -85.1803 318° Northwest 148 170 8,100  Level Jacksonville Center
20:57 31.6233 -85.2103 322° Northwest 148 170 8,100  Level Jacksonville Center
20:58 31.6519 -85.2428 316° Northwest 147 169 8,100  Level Jacksonville Center
20:59 31.7000 -85.2833 324° Northwest 149 171 8,100  Level Atlanta TRACON
21:00 31.7333 -85.3167 320° Northwest 148 170 8,100  Level Atlanta TRACON
21:02 31.7667 -85.3500 320° Northwest 148 170 8,100  Level Atlanta TRACON
21:02 31.8000 -85.3833 320° Northwest 147 169 8,100  Level Atlanta TRACON
21:03 31.8333 -85.4167 320° Northwest 146 168 8,100  Level Atlanta TRACON
21:04 31.8667 -85.4500 320° Northwest 144 166 8,100  Level Atlanta TRACON
21:05 31.9000 -85.4833 320° Northwest 145 167 8,100  Level Atlanta TRACON
21:06 31.9167 -85.5000 320° Northwest 145 167 8,100  Level Atlanta TRACON
21:07 31.9500 -85.5333 320° Northwest 147 169 8,100 -60 Level Atlanta TRACON
21:34 32.7581 -86.3606 320° Northwest 144 166 8,000 -60 Descending Atlanta Center
21:34 32.7619 -86.3658 311° West 145 167 7,900 -660 Descending Atlanta Center
21:35 32.8113 -86.4109 320° Northwest  Level FlightAware Approximate
21:35 32.7969 -86.3964 324° Northwest 158 182 7,300  Level Atlanta Center
21:36 32.8431 -86.4428 320° Northwest  Level FlightAware Approximate
21:36 32.8297 -86.4317 318° Northwest 169 194 6,700  Level Atlanta Center
21:37 32.8750 -86.4747 320° Northwest  Level FlightAware Approximate
21:37 32.8664 -86.4722 317° Northwest 172 198 5,900  Level Atlanta Center
21:38 32.9068 -86.5067 320° Northwest  Level FlightAware Approximate
21:38 32.9033 -86.5131 317° Northwest 170 196 5,300  Level Atlanta Center
21:39 32.9387 -86.5386 320° Northwest  Level FlightAware Approximate
21:39 32.9339 -86.5411 322° Northwest 168 193 4,600  Level Atlanta Center
21:40 32.9708 -86.5742 323° Northwest 167 192 4,200 -300 Descending Atlanta Center
21:41 33.0056 -86.6150 315° West 165 190 4,100 -60 Descending Atlanta Center
21:42 33.0422 -86.6506 321° Northwest 150 173 4,100  Level Atlanta Center
21:44 33.0887 -86.7037 316° Northwest  Level FlightAware Approximate
21:51 33.3000 -86.9167 320° Northwest  Level FlightAware Approximate
21:52 33.3126 -86.9263 320° Northwest  Level Estimated
21:53 33.3126 -86.9263 320° Northwest  Level Estimated